Aviation Digital Data Service (ADDS)

Output produced by METARs form (1202 UTC 16 July 2019)
found at http://www.aviationweather.gov/metar/data/
 
KTCC 161120Z 1612/1712 23007KT P6SM SCT130 
     FM161800 21012G20KT P6SM SCT080 
     FM170000 18015G22KT P6SM VCSH BKN100 
     FM170500 25008KT P6SM BKN120
       
KTCL 161130Z 1612/1712 16004KT P6SM BKN015 
     FM161600 20010KT P6SM FEW050 SCT250 
     FM162100 20012KT P6SM VCTS BKN050CB BKN250 
     FM170300 19003KT P6SM SCT250
       
TAF KTCM 160500Z 1605/1711 VRB06KT 9999 BKN030 QNH3005INS 
     BECMG 1611/1612 VRB06KT 4800 BR BKN015 QNH3003INS 
     TEMPO 1612/1616 3200 BR BKN008 
     BECMG 1620/1621 25009KT 9999 NSW SCT030 QNH2996INS TX24/1621Z TN14/1613Z
       
KTCS 161147Z 1612/1712 32008KT P6SM SCT250 
     FM161800 30009G17KT P6SM VCTS FEW120 FEW250CB 
     FM170300 32008KT P6SM BKN200
       
KTEB 161123Z 1612/1718 VRB04KT P6SM SCT250 
     FM161500 25006KT P6SM SCT250 
     FM161800 23010KT P6SM BKN250 
     FM162300 23006KT P6SM SCT150 BKN250 
     FM171700 22010KT P6SM SCT150 BKN250
       
KTEX 161127Z 1612/1712 13005KT P6SM SKC 
     FM162000 22010G20KT P6SM VCSH FEW070 SCT120 
     FM170000 21008KT P6SM FEW070 SCT180 
     FM170200 15007KT P6SM FEW080 FEW250
       
TAF KTIK 160900Z 1609/1715 16009KT 9999 SKC QNH2982INS TX36/1622Z TN22/1612Z
       
KTIX 161124Z 1612/1712 16003KT P6SM BKN250 
     FM161400 21004KT P6SM FEW030 
     FM161600 10006KT P6SM SCT035 
     FM162200 13009KT P6SM SCT030
       
KTLH 161120Z 1612/1712 00000KT P6SM SCT250 
     FM161600 21005KT P6SM SCT040 
     PROB30 1621/1624 6SM -TSRA BKN040CB
       
KTMB 161120Z 1612/1712 11004KT P6SM VCSH SCT025 SCT150 
     FM161500 12008KT P6SM SCT025 SCT080 BKN150 
     FM162300 11008KT P6SM FEW025 FEW100 SCT250 
     FM170200 10006KT P6SM FEW025 SCT100 SCT250
       
KTOI 161130Z 1612/1712 00000KT P6SM SCT250 
     FM161500 20007KT P6SM FEW050 SCT250 
     FM170000 18004KT P6SM BKN250
       
KTOL 161120Z 1612/1712 20004KT P6SM VCSH SCT045 BKN110 
     FM161500 21010KT P6SM VCTS BKN035CB OVC070 
     TEMPO 1615/1617 2SM TSRA BKN025 OVC035CB 
     FM162100 19008KT P6SM VCTS BKN035CB OVC050 
     TEMPO 1622/1702 2SM TSRA BKN015 OVC025CB 
     FM170500 19004KT 5SM BR VCSH OVC025
       
KTOP 161120Z 1612/1712 00000KT 6SM BR MIFG FEW250 
     FM161400 15005KT P6SM FEW020
       
KTPA 161135Z 1612/1718 13004KT P6SM FEW250 
     FM161400 16005KT P6SM SCT025 
     FM161700 24007KT P6SM VCTS SCT035CB SCT250 
     FM162100 30007KT P6SM VCTS BKN050CB 
     FM170200 VRB03KT P6SM FEW050 SCT130 BKN250 
     FM171500 21005KT P6SM SCT030 SCT250
       
KTPH 161120Z 1612/1712 35008KT P6SM SKC 
     FM161900 22010G20KT P6SM SKC 
     FM162200 25010G20KT P6SM SKC 
     FM170600 36006KT P6SM FEW150
       
KTRI 161121Z 1612/1712 00000KT P6SM BKN200 
     FM161700 23006KT P6SM SCT050 BKN200 
     FM170100 00000KT P6SM FEW050 BKN200
       
KTRK 161120Z 1612/1712 VRB03KT P6SM SCT140 
     FM161800 19009KT P6SM FEW070 SCT140 
     FM162100 25011G20KT P6SM FEW070 SCT140 
     FM170200 28009KT P6SM FEW140 
     FM170500 VRB03KT P6SM SKC
       
KTRM 161137Z 1612/1712 33007KT P6SM SKC 
     FM162000 15012G21KT P6SM SKC 
     FM170100 32011KT P6SM SKC 
     FM170800 32007KT P6SM SKC
       
KTTD 161124Z 1612/1712 00000KT P6SM BKN015 OVC045 
     FM161800 VRB03KT P6SM SCT020 OVC045 
     FM162300 29006KT P6SM BKN050 
     FM170800 26005KT P6SM SCT030 OVC045
       
KTTN 161120Z 1612/1712 VRB03KT P6SM FEW250 
     FM161500 24007KT P6SM FEW050 SCT160 
     FM170300 VRB04KT P6SM SCT100 BKN140 
     FM170600 VRB03KT P6SM BKN120
       
KTUL 161120Z 1612/1712 00000KT P6SM FEW250 
     FM161600 18008KT P6SM SCT035 
     FM170100 15007KT P6SM SKC
       
KTUP 161126Z 1612/1712 20011KT P6SM VCSH BKN012 OVC050 
     FM161700 22012G19KT P6SM VCTS SCT025CB BKN040 
     FM170100 20008KT P6SM VCSH OVC040 
     FM170800 21007KT P6SM VCTS SCT020 BKN035CB
       
KTUS 161120Z 1612/1712 14006KT P6SM SCT150 SCT250 
     FM161800 25008KT P6SM SCT120 BKN250 
     FM170000 24012G20KT P6SM SCT100 BKN250 
     FM170400 16010KT P6SM SCT100 BKN250
       
KTVC 161120Z 1612/1712 22010KT P6SM SCT040 BKN180 
     FM161500 24010G19KT P6SM SCT040 BKN070 
     FM161800 24009KT P6SM BKN050 
     FM170200 VRB03KT P6SM BKN080 
     FM170400 00000KT P6SM BKN050
       
KTVL 161120Z 1612/1712 VRB03KT P6SM SCT140 
     FM161900 19011G20KT P6SM FEW060 SCT140 
     FM170200 VRB03KT P6SM FEW140
       
KTWF 161124Z 1612/1712 24010KT P6SM BKN200 
     FM162100 30010KT P6SM VCTS BKN100CB 
     FM170500 19010KT P6SM SCT150
       
KTXK 161120Z 1612/1712 21012KT P6SM VCTS BKN015CB OVC080 
     TEMPO 1612/1616 1SM +TSRA BR OVC010CB 
     FM161600 21012G20KT P6SM VCTS OVC025CB 
     TEMPO 1616/1619 1SM +TSRA BR OVC030CB 
     FM161900 21012G18KT P6SM SCT040 SCT120 BKN250 
     FM170000 19005KT P6SM SCT050 SCT120 SCT250 
     FM171000 20008KT P6SM BKN010
       
KTYR 161120Z 1612/1712 20012G18KT P6SM BKN015 BKN080 
     TEMPO 1612/1616 SCT025 SCT080 
     FM161600 21014G22KT P6SM SCT030 SCT080 
     TEMPO 1616/1618 BKN035 
     FM161800 21013G21KT P6SM SCT040 SCT250 
     FM170000 19008KT P6SM SKC 
     FM170700 19008KT P6SM BKN010
       
KTYS 161121Z 1612/1712 22005KT P6SM BKN200 
     FM161700 23012KT P6SM SCT050 BKN200 
     FM170000 21005KT P6SM FEW050 BKN200